^^
LKKV - Karlovy Vary, Czech Republic
Entfernung von Station: O 36km
Aktualisierung: 28.05.2020 20:30
teils wolkig
teils wolkig
 Wind von NNO
Wind: NNO 9 km/h
Temperatur: 9°C
Windkühle: 7°C
Taupunkt: 5°C
Luftfeuchte: 76%
Luftdruck: 1028 hPa
Wolken: teils wolkig
Sicht: 10 km
Wolken Details: teils wolkig 914 m
2020/05/28 18:30 LKKV 281830Z 02005KT 9999 FEW030 09/05 Q1028
EDQM - Hof, Germany
Entfernung von Station: W 40km
Aktualisierung: 28.05.2020 19:50
Klar
Klar
 Wind von NNO
Wind: NNO 20 km/h
Temperatur: 13°C
Taupunkt: 4°C
Luftfeuchte: 55%
Luftdruck: 1028 hPa
Zusammenfassung: Klar
Sicht: mehr als 10 km
2020/05/28 17:50 EDQM 281750Z 02011KT CAVOK 13/04 Q1028
 
ETIC - Grafenwoehr, Germany
Entfernung von Station: SSW 72km
Aktualisierung: 28.05.2020 19:56
Klar
Klar
 Wind von calm
Wind: Windstill
Temperatur: 12°C
Taupunkt: 6°C
Luftfeuchte: 67%
Luftdruck: 1027.4 hPa
Wolken: Klar
Sicht: 10 km
2020/05/28 17:56 ETIC 281756Z AUTO 00000KT 9999 CLR 12/06 A3034 RMK AO2 SLP277 T01230055 10189 20117 50005 $
EDAC - Altenburg-Nobitz, Germany
Entfernung von Station: N 80km
Aktualisierung: 28.05.2020 20:20
Bedeckt
Bedeckt
 Wind von veränderlich
Wind: veränderlich 2 km/h
Temperatur: 15°C
Taupunkt: 6°C
Luftfeuchte: 55%
Luftdruck: 1027 hPa
Wolken: Bedeckt
Sicht: 10 km
Wolken Details: wolkig 2012 m
Bedeckt 2499 m
2020/05/28 18:20 EDAC 281820Z AUTO VRB01KT 9999 // SCT066/// OVC082/// 15/06 Q1027
 
LKLN - Plzen Line, Czech Republic
Entfernung von Station: SO 88km
Aktualisierung: 28.05.2020 20:30
stark bewölkt
stark bewölkt
 Wind von W
Wind: W 6 km/h
Temperatur: 10°C
Taupunkt: 8°C
Luftfeuchte: 88%
Luftdruck: 1028 hPa
Wolken: stark bewölkt
Sicht: 10 km
Wolken Details: teils wolkig 1737 m
stark bewölkt 2195 m
stark bewölkt 2835 m
2020/05/28 18:30 LKLN 281830Z AUTO 26003KT 230V290 9999 FEW057 BKN072 BKN093 10/08 Q1028
ETIH - Hohenfels (usa-A, Germany
Entfernung von Station: SSW 124km
Aktualisierung: 28.05.2020 19:56
stark bewölkt
stark bewölkt
 Wind von ONO
Wind: ONO 11 km/h
Temperatur: 13°C
Taupunkt: 3°C
Luftfeuchte: 51%
Luftdruck: 1028.4 hPa
Wolken: stark bewölkt
Sicht: 10 km
Wolken Details: teils wolkig 2286 m
stark bewölkt 2896 m
2020/05/28 17:56 ETIH 281756Z AUTO 06006KT 9999 FEW075 BKN095 13/03 A3037 RMK AO2 SLP285 T01250029 10184 20125 52012 $
 
EDDE - Erfurt/Bindersleben, Germany
Entfernung von Station: NW 129km
Aktualisierung: 28.05.2020 20:20
Klar
Klar
 Wind von N
Wind: N 15 km/h
Temperatur: 15°C
Taupunkt: 4°C
Luftfeuchte: 48%
Luftdruck: 1028 hPa
Zusammenfassung: Klar
Sicht: mehr als 10 km
2020/05/28 18:20 EDDE 281820Z 01008KT CAVOK 15/04 Q1028 NOSIG
EDDP - Leipzig/Schkeudidtz, Germany
Entfernung von Station: N 129km
Aktualisierung: 28.05.2020 20:20
Klar
Klar
 Wind von N
Wind: N 17 km/h
Temperatur: 18°C
Taupunkt: 4°C
Luftfeuchte: 40%
Luftdruck: 1028 hPa
Zusammenfassung: Klar
Sicht: mehr als 10 km
2020/05/28 18:20 EDDP 281820Z 36009KT CAVOK 18/04 Q1028 NOSIG
 
EDDN - Nuernberg, Germany
Entfernung von Station: SW 130km
Aktualisierung: 28.05.2020 20:20
Klar
Klar
 Wind von NNO
Wind: NNO 15 km/h
Temperatur: 16°C
Taupunkt: 2°C
Luftfeuchte: 39%
Luftdruck: 1027 hPa
Zusammenfassung: Klar
Sicht: mehr als 10 km
2020/05/28 18:20 EDDN 281820Z 03008KT 360V070 CAVOK 16/02 Q1027 NOSIG
LKPR - Prague/Ruzyne, Czech Republic
Entfernung von Station: O 133km
Aktualisierung: 28.05.2020 20:30
wolkig
wolkig
 Wind von NW
Wind: NW 13 km/h
Temperatur: 11°C
Taupunkt: 7°C
Luftfeuchte: 77%
Luftdruck: 1027 hPa
Wolken: wolkig
Sicht: 10 km
Wolken Details: wolkig 1402 m
2020/05/28 18:30 LKPR 281830Z 32007KT 9999 SCT046 11/07 Q1027 NOSIG
 
EDDC - Dresden/Klotzsche, Germany
Entfernung von Station: NO 134km
Aktualisierung: 28.05.2020 20:20
Klar
Klar
 Wind von SSW
Wind: SSW 7 km/h
Temperatur: 12°C
Taupunkt: 8°C
Luftfeuchte: 77%
Luftdruck: 1027 hPa
Zusammenfassung: Klar
Sicht: mehr als 10 km
2020/05/28 18:20 EDDC 281820Z 20004KT CAVOK 12/08 Q1027 NOSIG
Besucherstatistik
Besucher gesamt: 2.581.592
Besucher heute: 40
Besucher gestern: 24
gerade online: 2
Seitenaufrufe diese Seite: 4.954
counter Statistiken